Arnoldsburg, WV

8:32 AM EST on February 07, 2016 (GMT -0500)
Grantsville, WV | | Change Station
CLOSE
Current Station
Personal Weather Station
Location: Grantsville, WV
Elevation: 1132 ft
Nearby Weather Stations

Elev 1132 ft 38.87 °N, 81.11 °W | Updated 1 minute ago

Clear
Clear
29.5 °F
Feels Like 30 °F
N
0.0
Wind Variable Wind from South

Today
High -- | Low -- °F
--% Chance of Precip.
Yesterday
High -- | Low -- °F
Precip. -- in
Pressure 30.22 in
Visibility 9.0 miles
Clouds Scattered Clouds 6500 ft
Windchill 30 °F
Dew Point 23 °F
Humidity 75%
Rainfall 0.00 in
Snow Depth Not available.
7:25 AM 5:52 PM
Waning Crescent, 2% visible
METAR KPKB 071253Z 00000KT 9SM SCT065 M06/M08 A3019 RMK AO2 SLP234 T10561078
Pressure 30.22 in
Visibility 9.0 miles
Clouds Scattered Clouds 6500 ft
Windchill 30 °F
Dew Point 23 °F
Humidity 75%
Rainfall 0.00 in
Snow Depth Not available.
7:25 AM 5:52 PM
Waning Crescent, 2% visible
METAR KPKB 071253Z 00000KT 9SM SCT065 M06/M08 A3019 RMK AO2 SLP234 T10561078

10-Day Weather Forecast

Almanac

Astronomy

Feb. 07, 2016 Rise Set
Actual Time
Civil Twilight
Nautical Twilight
Astronomical Twilight
Moon
Length of Visible Light
Length of Day
Tomorrow will be .
, % of the Moon is Illuminated

Today's Extremes

State Highs State Lows

Community

WunderPhotos

Upload Photos

1,891,190 photos uploaded!

WunderBlog® & News

Nearby

Air Quality

  Air Quality AQ Index Pollutant
Not available.

Snow Depth

Station Depth Elevation

Earthquake Activity

City Distance Mag. Time & Date
Minimum magnitude displayed is 2.5.

Coastal Water Temperatures

Place Temperature

Stations

Nearby Weather Stations

Station Location Temp. Windchill Dew Point Humidity Wind Precip. Elev Updated Type
                   

Watches & Warnings

There are currently no watches in effect.